sensor_id;sensor_type;location;lat;lon;timestamp;P1;durP1;ratioP1;P2;durP2;ratioP2
6898;SDS011;3488;42.616;23.350;2022-10-03T00:00:59;1.27;;;1.17;;
6898;SDS011;3488;42.616;23.350;2022-10-03T00:03:40;2.67;;;1.35;;
6898;SDS011;3488;42.616;23.350;2022-10-03T00:06:21;1.95;;;1.30;;
6898;SDS011;3488;42.616;23.350;2022-10-03T00:09:05;1.05;;;1.05;;
6898;SDS011;3488;42.616;23.350;2022-10-03T00:11:47;1.63;;;1.00;;
6898;SDS011;3488;42.616;23.350;2022-10-03T00:14:27;2.30;;;1.13;;
6898;SDS011;3488;42.616;23.350;2022-10-03T00:17:02;3.30;;;1.30;;
6898;SDS011;3488;42.616;23.350;2022-10-03T00:19:37;1.20;;;1.20;;
6898;SDS011;3488;42.616;23.350;2022-10-03T00:22:14;0.90;;;0.90;;
6898;SDS011;3488;42.616;23.350;2022-10-03T00:24:54;1.40;;;1.40;;
6898;SDS011;3488;42.616;23.350;2022-10-03T00:27:29;2.63;;;1.10;;
6898;SDS011;3488;42.616;23.350;2022-10-03T00:30:04;1.95;;;1.15;;
6898;SDS011;3488;42.616;23.350;2022-10-03T00:32:50;2.05;;;0.80;;
6898;SDS011;3488;42.616;23.350;2022-10-03T00:35:31;1.88;;;1.00;;
6898;SDS011;3488;42.616;23.350;2022-10-03T00:38:15;1.27;;;1.17;;
6898;SDS011;3488;42.616;23.350;2022-10-03T00:53:15;1.00;;;1.00;;
6898;SDS011;3488;42.616;23.350;2022-10-03T00:56:05;1.70;;;1.60;;
6898;SDS011;3488;42.616;23.350;2022-10-03T01:01:44;1.08;;;1.08;;
6898;SDS011;3488;42.616;23.350;2022-10-03T01:04:20;1.38;;;1.30;;
6898;SDS011;3488;42.616;23.350;2022-10-03T01:07:02;3.85;;;1.60;;
6898;SDS011;3488;42.616;23.350;2022-10-03T01:09:45;4.35;;;1.30;;
6898;SDS011;3488;42.616;23.350;2022-10-03T01:12:32;1.67;;;1.67;;
6898;SDS011;3488;42.616;23.350;2022-10-03T01:15:20;1.58;;;1.58;;
6898;SDS011;3488;42.616;23.350;2022-10-03T01:18:06;2.45;;;2.25;;
6898;SDS011;3488;42.616;23.350;2022-10-03T01:20:43;1.30;;;1.30;;
6898;SDS011;3488;42.616;23.350;2022-10-03T01:23:23;1.85;;;1.70;;
6898;SDS011;3488;42.616;23.350;2022-10-03T01:26:10;2.13;;;1.48;;
6898;SDS011;3488;42.616;23.350;2022-10-03T01:28:51;1.77;;;1.60;;
6898;SDS011;3488;42.616;23.350;2022-10-03T01:31:42;1.42;;;1.42;;
6898;SDS011;3488;42.616;23.350;2022-10-03T01:34:17;2.03;;;1.65;;
6898;SDS011;3488;42.616;23.350;2022-10-03T01:36:53;3.55;;;1.67;;
6898;SDS011;3488;42.616;23.350;2022-10-03T01:39:31;2.63;;;1.50;;
6898;SDS011;3488;42.616;23.350;2022-10-03T01:42:05;1.70;;;1.60;;
6898;SDS011;3488;42.616;23.350;2022-10-03T01:44:40;1.60;;;1.50;;
6898;SDS011;3488;42.616;23.350;2022-10-03T01:47:23;1.63;;;1.52;;
6898;SDS011;3488;42.616;23.350;2022-10-03T01:49:58;2.40;;;1.55;;
6898;SDS011;3488;42.616;23.350;2022-10-03T01:52:35;1.63;;;1.52;;
6898;SDS011;3488;42.616;23.350;2022-10-03T01:55:09;2.03;;;1.48;;
6898;SDS011;3488;42.616;23.350;2022-10-03T01:57:44;2.53;;;1.35;;
6898;SDS011;3488;42.616;23.350;2022-10-03T02:00:21;1.13;;;1.13;;
6898;SDS011;3488;42.616;23.350;2022-10-03T02:02:51;2.28;;;1.38;;
6898;SDS011;3488;42.616;23.350;2022-10-03T02:05:27;1.10;;;1.10;;
6898;SDS011;3488;42.616;23.350;2022-10-03T02:08:08;1.67;;;1.52;;
6898;SDS011;3488;42.616;23.350;2022-10-03T02:10:50;1.40;;;1.30;;
6898;SDS011;3488;42.616;23.350;2022-10-03T02:13:21;2.08;;;1.20;;
6898;SDS011;3488;42.616;23.350;2022-10-03T02:15:56;1.20;;;1.20;;
6898;SDS011;3488;42.616;23.350;2022-10-03T02:18:35;1.00;;;1.00;;
6898;SDS011;3488;42.616;23.350;2022-10-03T02:21:10;1.50;;;1.50;;
6898;SDS011;3488;42.616;23.350;2022-10-03T02:23:43;1.15;;;1.10;;
6898;SDS011;3488;42.616;23.350;2022-10-03T02:29:30;1.88;;;1.25;;
6898;SDS011;3488;42.616;23.350;2022-10-03T02:32:35;1.42;;;1.33;;
6898;SDS011;3488;42.616;23.350;2022-10-03T02:36:01;1.92;;;1.38;;
6898;SDS011;3488;42.616;23.350;2022-10-03T02:38:52;1.00;;;1.00;;
6898;SDS011;3488;42.616;23.350;2022-10-03T02:44:57;1.70;;;1.35;;
6898;SDS011;3488;42.616;23.350;2022-10-03T02:51:00;1.35;;;1.27;;
6898;SDS011;3488;42.616;23.350;2022-10-03T02:54:01;1.20;;;1.15;;
6898;SDS011;3488;42.616;23.350;2022-10-03T03:00:06;1.13;;;1.13;;
6898;SDS011;3488;42.616;23.350;2022-10-03T03:06:00;1.13;;;1.13;;
6898;SDS011;3488;42.616;23.350;2022-10-03T03:08:56;1.40;;;1.30;;
6898;SDS011;3488;42.616;23.350;2022-10-03T03:14:42;1.30;;;0.82;;
6898;SDS011;3488;42.616;23.350;2022-10-03T03:17:36;1.70;;;1.60;;
6898;SDS011;3488;42.616;23.350;2022-10-03T03:20:12;3.42;;;1.83;;
6898;SDS011;3488;42.616;23.350;2022-10-03T03:23:05;1.90;;;1.55;;
6898;SDS011;3488;42.616;23.350;2022-10-03T03:25:49;1.48;;;1.27;;
6898;SDS011;3488;42.616;23.350;2022-10-03T03:28:32;1.45;;;1.30;;
6898;SDS011;3488;42.616;23.350;2022-10-03T03:31:10;1.30;;;1.20;;
6898;SDS011;3488;42.616;23.350;2022-10-03T03:33:44;1.40;;;1.30;;
6898;SDS011;3488;42.616;23.350;2022-10-03T03:36:22;1.45;;;1.35;;
6898;SDS011;3488;42.616;23.350;2022-10-03T03:39:00;1.00;;;1.00;;
6898;SDS011;3488;42.616;23.350;2022-10-03T03:41:42;2.95;;;1.35;;
6898;SDS011;3488;42.616;23.350;2022-10-03T03:47:29;1.60;;;1.15;;
6898;SDS011;3488;42.616;23.350;2022-10-03T03:50:13;4.80;;;1.38;;
6898;SDS011;3488;42.616;23.350;2022-10-03T03:52:59;1.55;;;1.40;;
6898;SDS011;3488;42.616;23.350;2022-10-03T03:55:47;1.40;;;1.40;;
6898;SDS011;3488;42.616;23.350;2022-10-03T03:58:29;1.40;;;1.25;;
6898;SDS011;3488;42.616;23.350;2022-10-03T04:01:15;1.33;;;1.20;;
6898;SDS011;3488;42.616;23.350;2022-10-03T04:04:00;1.88;;;1.38;;
6898;SDS011;3488;42.616;23.350;2022-10-03T04:06:43;1.58;;;1.48;;
6898;SDS011;3488;42.616;23.350;2022-10-03T04:09:36;1.05;;;1.00;;
6898;SDS011;3488;42.616;23.350;2022-10-03T04:12:21;1.30;;;1.30;;
6898;SDS011;3488;42.616;23.350;2022-10-03T04:15:00;3.03;;;1.30;;
6898;SDS011;3488;42.616;23.350;2022-10-03T04:17:40;1.52;;;1.38;;
6898;SDS011;3488;42.616;23.350;2022-10-03T04:23:37;1.60;;;1.40;;
6898;SDS011;3488;42.616;23.350;2022-10-03T04:26:19;1.30;;;1.27;;
6898;SDS011;3488;42.616;23.350;2022-10-03T04:29:10;1.48;;;1.45;;
6898;SDS011;3488;42.616;23.350;2022-10-03T04:31:55;2.00;;;1.80;;
6898;SDS011;3488;42.616;23.350;2022-10-03T04:34:41;6.22;;;2.70;;
6898;SDS011;3488;42.616;23.350;2022-10-03T04:37:23;3.58;;;2.55;;
6898;SDS011;3488;42.616;23.350;2022-10-03T04:40:08;2.85;;;2.65;;
6898;SDS011;3488;42.616;23.350;2022-10-03T04:42:51;4.03;;;2.60;;
6898;SDS011;3488;42.616;23.350;2022-10-03T04:45:30;3.85;;;2.50;;
6898;SDS011;3488;42.616;23.350;2022-10-03T04:48:08;3.50;;;2.65;;
6898;SDS011;3488;42.616;23.350;2022-10-03T04:50:43;2.53;;;2.33;;
6898;SDS011;3488;42.616;23.350;2022-10-03T04:53:25;2.75;;;2.20;;
6898;SDS011;3488;42.616;23.350;2022-10-03T04:56:08;9.32;;;3.15;;
6898;SDS011;3488;42.616;23.350;2022-10-03T04:58:45;4.63;;;2.63;;
6898;SDS011;3488;42.616;23.350;2022-10-03T05:01:21;2.83;;;2.20;;
6898;SDS011;3488;42.616;23.350;2022-10-03T05:03:59;3.88;;;2.53;;
6898;SDS011;3488;42.616;23.350;2022-10-03T05:06:36;3.13;;;2.92;;
6898;SDS011;3488;42.616;23.350;2022-10-03T05:09:16;2.40;;;2.30;;
6898;SDS011;3488;42.616;23.350;2022-10-03T05:11:54;4.70;;;2.55;;
6898;SDS011;3488;42.616;23.350;2022-10-03T05:14:30;2.92;;;2.72;;
6898;SDS011;3488;42.616;23.350;2022-10-03T05:17:14;3.35;;;3.05;;
6898;SDS011;3488;42.616;23.350;2022-10-03T05:20:13;4.68;;;2.60;;
6898;SDS011;3488;42.616;23.350;2022-10-03T05:22:51;2.67;;;2.47;;
6898;SDS011;3488;42.616;23.350;2022-10-03T05:25:28;11.98;;;4.35;;
6898;SDS011;3488;42.616;23.350;2022-10-03T05:28:05;3.00;;;2.80;;
6898;SDS011;3488;42.616;23.350;2022-10-03T05:30:41;3.67;;;2.80;;
6898;SDS011;3488;42.616;23.350;2022-10-03T05:33:20;2.72;;;2.50;;
6898;SDS011;3488;42.616;23.350;2022-10-03T05:38:56;3.15;;;2.85;;
6898;SDS011;3488;42.616;23.350;2022-10-03T05:41:28;5.07;;;3.53;;
6898;SDS011;3488;42.616;23.350;2022-10-03T05:44:03;9.63;;;6.28;;
6898;SDS011;3488;42.616;23.350;2022-10-03T05:46:51;13.75;;;5.68;;
6898;SDS011;3488;42.616;23.350;2022-10-03T05:49:41;3.83;;;3.20;;
6898;SDS011;3488;42.616;23.350;2022-10-03T05:52:27;3.92;;;2.70;;
6898;SDS011;3488;42.616;23.350;2022-10-03T05:55:15;4.22;;;3.78;;
6898;SDS011;3488;42.616;23.350;2022-10-03T06:04:21;3.42;;;1.70;;
6898;SDS011;3488;42.616;23.350;2022-10-03T06:07:13;2.85;;;2.63;;
6898;SDS011;3488;42.616;23.350;2022-10-03T06:09:52;3.40;;;3.10;;
6898;SDS011;3488;42.616;23.350;2022-10-03T06:12:44;3.65;;;3.45;;
6898;SDS011;3488;42.616;23.350;2022-10-03T06:15:37;4.20;;;3.40;;
6898;SDS011;3488;42.616;23.350;2022-10-03T06:18:21;7.53;;;4.45;;
6898;SDS011;3488;42.616;23.350;2022-10-03T06:27:50;13.80;;;4.55;;
6898;SDS011;3488;42.616;23.350;2022-10-03T06:30:45;15.43;;;4.50;;
6898;SDS011;3488;42.616;23.350;2022-10-03T06:36:42;5.97;;;3.78;;
6898;SDS011;3488;42.616;23.350;2022-10-03T06:42:46;3.92;;;3.63;;
6898;SDS011;3488;42.616;23.350;2022-10-03T06:45:38;5.50;;;4.03;;
6898;SDS011;3488;42.616;23.350;2022-10-03T06:52:08;5.30;;;4.57;;
6898;SDS011;3488;42.616;23.350;2022-10-03T06:55:01;6.35;;;4.10;;
6898;SDS011;3488;42.616;23.350;2022-10-03T06:57:52;7.90;;;4.22;;
6898;SDS011;3488;42.616;23.350;2022-10-03T07:00:56;6.97;;;5.22;;
6898;SDS011;3488;42.616;23.350;2022-10-03T07:03:42;13.95;;;5.80;;
6898;SDS011;3488;42.616;23.350;2022-10-03T07:06:34;7.18;;;4.88;;
6898;SDS011;3488;42.616;23.350;2022-10-03T07:12:24;9.70;;;5.18;;
6898;SDS011;3488;42.616;23.350;2022-10-03T07:21:26;16.42;;;5.47;;
6898;SDS011;3488;42.616;23.350;2022-10-03T07:27:22;13.95;;;5.60;;
6898;SDS011;3488;42.616;23.350;2022-10-03T07:30:05;10.68;;;6.13;;
6898;SDS011;3488;42.616;23.350;2022-10-03T07:32:43;13.98;;;6.43;;
6898;SDS011;3488;42.616;23.350;2022-10-03T07:35:39;11.35;;;6.00;;
6898;SDS011;3488;42.616;23.350;2022-10-03T07:38:35;7.57;;;6.35;;
6898;SDS011;3488;42.616;23.350;2022-10-03T07:41:37;13.43;;;6.53;;
6898;SDS011;3488;42.616;23.350;2022-10-03T07:44:48;12.25;;;6.78;;
6898;SDS011;3488;42.616;23.350;2022-10-03T07:50:48;11.75;;;8.43;;
6898;SDS011;3488;42.616;23.350;2022-10-03T07:53:33;10.45;;;7.05;;
6898;SDS011;3488;42.616;23.350;2022-10-03T07:56:23;12.27;;;7.75;;
6898;SDS011;3488;42.616;23.350;2022-10-03T07:59:24;7.32;;;6.65;;
6898;SDS011;3488;42.616;23.350;2022-10-03T08:02:23;11.10;;;8.57;;
6898;SDS011;3488;42.616;23.350;2022-10-03T08:05:21;15.27;;;9.07;;
6898;SDS011;3488;42.616;23.350;2022-10-03T08:08:06;11.35;;;8.55;;
6898;SDS011;3488;42.616;23.350;2022-10-03T08:11:02;13.40;;;8.50;;
6898;SDS011;3488;42.616;23.350;2022-10-03T08:13:43;9.60;;;8.63;;
6898;SDS011;3488;42.616;23.350;2022-10-03T08:16:32;9.75;;;8.40;;
6898;SDS011;3488;42.616;23.350;2022-10-03T08:19:23;10.60;;;8.90;;
6898;SDS011;3488;42.616;23.350;2022-10-03T08:22:04;16.08;;;9.63;;
6898;SDS011;3488;42.616;23.350;2022-10-03T08:27:57;9.30;;;8.18;;
6898;SDS011;3488;42.616;23.350;2022-10-03T08:30:54;10.23;;;9.10;;
6898;SDS011;3488;42.616;23.350;2022-10-03T08:36:42;13.60;;;8.75;;
6898;SDS011;3488;42.616;23.350;2022-10-03T08:39:45;15.93;;;9.65;;
6898;SDS011;3488;42.616;23.350;2022-10-03T08:42:31;13.77;;;9.02;;
6898;SDS011;3488;42.616;23.350;2022-10-03T08:45:25;7.72;;;6.55;;
6898;SDS011;3488;42.616;23.350;2022-10-03T08:51:25;11.65;;;6.18;;
6898;SDS011;3488;42.616;23.350;2022-10-03T08:54:19;9.65;;;6.20;;
6898;SDS011;3488;42.616;23.350;2022-10-03T08:57:06;8.13;;;5.47;;
6898;SDS011;3488;42.616;23.350;2022-10-03T09:05:47;6.10;;;3.58;;
6898;SDS011;3488;42.616;23.350;2022-10-03T09:11:52;3.58;;;2.15;;
6898;SDS011;3488;42.616;23.350;2022-10-03T09:14:40;2.70;;;2.60;;
6898;SDS011;3488;42.616;23.350;2022-10-03T09:17:41;2.95;;;2.28;;
6898;SDS011;3488;42.616;23.350;2022-10-03T09:20:28;4.00;;;2.45;;
6898;SDS011;3488;42.616;23.350;2022-10-03T09:23:35;2.08;;;1.98;;
6898;SDS011;3488;42.616;23.350;2022-10-03T09:29:35;2.00;;;1.90;;
6898;SDS011;3488;42.616;23.350;2022-10-03T09:35:44;1.77;;;1.77;;
6898;SDS011;3488;42.616;23.350;2022-10-03T09:41:31;2.20;;;2.10;;
6898;SDS011;3488;42.616;23.350;2022-10-03T09:44:24;2.00;;;1.90;;
6898;SDS011;3488;42.616;23.350;2022-10-03T09:47:36;1.98;;;1.88;;
6898;SDS011;3488;42.616;23.350;2022-10-03T09:53:26;1.95;;;1.85;;
6898;SDS011;3488;42.616;23.350;2022-10-03T09:56:17;1.85;;;1.77;;
6898;SDS011;3488;42.616;23.350;2022-10-03T09:59:17;2.05;;;1.90;;
6898;SDS011;3488;42.616;23.350;2022-10-03T10:02:01;2.15;;;2.05;;
6898;SDS011;3488;42.616;23.350;2022-10-03T10:04:54;1.85;;;1.75;;
6898;SDS011;3488;42.616;23.350;2022-10-03T10:10:53;1.73;;;1.63;;
6898;SDS011;3488;42.616;23.350;2022-10-03T10:13:43;1.85;;;1.85;;
6898;SDS011;3488;42.616;23.350;2022-10-03T10:16:58;2.08;;;1.98;;
6898;SDS011;3488;42.616;23.350;2022-10-03T10:20:07;2.63;;;1.65;;
6898;SDS011;3488;42.616;23.350;2022-10-03T10:23:02;1.58;;;1.58;;
6898;SDS011;3488;42.616;23.350;2022-10-03T10:35:58;1.90;;;1.80;;
6898;SDS011;3488;42.616;23.350;2022-10-03T10:45:22;1.77;;;1.70;;
6898;SDS011;3488;42.616;23.350;2022-10-03T10:51:28;1.10;;;1.10;;
6898;SDS011;3488;42.616;23.350;2022-10-03T10:57:36;1.27;;;1.15;;
6898;SDS011;3488;42.616;23.350;2022-10-03T11:00:27;0.93;;;0.88;;
6898;SDS011;3488;42.616;23.350;2022-10-03T11:16:15;1.30;;;1.30;;
6898;SDS011;3488;42.616;23.350;2022-10-03T11:19:39;1.30;;;1.30;;
6898;SDS011;3488;42.616;23.350;2022-10-03T11:32:18;1.35;;;1.35;;
6898;SDS011;3488;42.616;23.350;2022-10-03T11:35:06;1.35;;;1.35;;
6898;SDS011;3488;42.616;23.350;2022-10-03T11:37:54;1.60;;;1.40;;
6898;SDS011;3488;42.616;23.350;2022-10-03T11:40:34;2.08;;;1.60;;
6898;SDS011;3488;42.616;23.350;2022-10-03T11:43:29;2.10;;;2.00;;
6898;SDS011;3488;42.616;23.350;2022-10-03T11:49:12;2.25;;;2.00;;
6898;SDS011;3488;42.616;23.350;2022-10-03T11:52:02;2.55;;;2.45;;
6898;SDS011;3488;42.616;23.350;2022-10-03T11:54:39;2.15;;;2.05;;
6898;SDS011;3488;42.616;23.350;2022-10-03T11:57:13;2.28;;;2.15;;
6898;SDS011;3488;42.616;23.350;2022-10-03T11:59:53;2.70;;;2.60;;
6898;SDS011;3488;42.616;23.350;2022-10-03T12:05:35;2.13;;;2.03;;
6898;SDS011;3488;42.616;23.350;2022-10-03T12:08:16;3.17;;;2.97;;
6898;SDS011;3488;42.616;23.350;2022-10-03T12:11:06;2.40;;;2.30;;
6898;SDS011;3488;42.616;23.350;2022-10-03T12:13:47;2.90;;;2.80;;
6898;SDS011;3488;42.616;23.350;2022-10-03T12:16:22;2.70;;;2.60;;
6898;SDS011;3488;42.616;23.350;2022-10-03T12:18:55;2.92;;;2.72;;
6898;SDS011;3488;42.616;23.350;2022-10-03T12:21:34;3.33;;;3.10;;
6898;SDS011;3488;42.616;23.350;2022-10-03T12:24:25;3.92;;;2.65;;
6898;SDS011;3488;42.616;23.350;2022-10-03T12:26:56;2.92;;;2.80;;
6898;SDS011;3488;42.616;23.350;2022-10-03T12:29:28;2.67;;;2.58;;
6898;SDS011;3488;42.616;23.350;2022-10-03T12:32:01;3.33;;;3.03;;
6898;SDS011;3488;42.616;23.350;2022-10-03T12:34:38;2.80;;;2.60;;
6898;SDS011;3488;42.616;23.350;2022-10-03T12:37:16;3.10;;;3.00;;
6898;SDS011;3488;42.616;23.350;2022-10-03T12:40:01;2.80;;;2.70;;
6898;SDS011;3488;42.616;23.350;2022-10-03T12:42:35;2.85;;;2.55;;
6898;SDS011;3488;42.616;23.350;2022-10-03T12:45:11;2.75;;;2.63;;
6898;SDS011;3488;42.616;23.350;2022-10-03T12:47:54;3.08;;;2.88;;
6898;SDS011;3488;42.616;23.350;2022-10-03T12:50:29;2.38;;;2.28;;
6898;SDS011;3488;42.616;23.350;2022-10-03T12:53:20;3.03;;;2.92;;
6898;SDS011;3488;42.616;23.350;2022-10-03T12:55:56;4.95;;;3.45;;
6898;SDS011;3488;42.616;23.350;2022-10-03T12:58:32;3.20;;;3.00;;
6898;SDS011;3488;42.616;23.350;2022-10-03T13:01:08;3.10;;;3.00;;
6898;SDS011;3488;42.616;23.350;2022-10-03T13:03:47;3.33;;;3.03;;
6898;SDS011;3488;42.616;23.350;2022-10-03T13:06:19;3.53;;;3.30;;
6898;SDS011;3488;42.616;23.350;2022-10-03T13:09:12;3.35;;;3.15;;
6898;SDS011;3488;42.616;23.350;2022-10-03T13:11:51;3.08;;;2.97;;
6898;SDS011;3488;42.616;23.350;2022-10-03T13:14:33;3.20;;;3.00;;
6898;SDS011;3488;42.616;23.350;2022-10-03T13:17:13;3.20;;;3.10;;
6898;SDS011;3488;42.616;23.350;2022-10-03T13:19:52;3.50;;;3.25;;
6898;SDS011;3488;42.616;23.350;2022-10-03T13:22:28;3.47;;;3.28;;
6898;SDS011;3488;42.616;23.350;2022-10-03T13:25:03;3.20;;;3.00;;
6898;SDS011;3488;42.616;23.350;2022-10-03T13:27:38;3.03;;;2.92;;
6898;SDS011;3488;42.616;23.350;2022-10-03T13:30:18;3.28;;;3.17;;
6898;SDS011;3488;42.616;23.350;2022-10-03T13:32:48;3.20;;;3.00;;
6898;SDS011;3488;42.616;23.350;2022-10-03T13:35:21;2.50;;;2.40;;
6898;SDS011;3488;42.616;23.350;2022-10-03T13:38:16;2.65;;;2.55;;
6898;SDS011;3488;42.616;23.350;2022-10-03T13:40:59;2.90;;;2.80;;
6898;SDS011;3488;42.616;23.350;2022-10-03T13:43:36;2.38;;;2.30;;
6898;SDS011;3488;42.616;23.350;2022-10-03T13:46:10;2.63;;;2.53;;
6898;SDS011;3488;42.616;23.350;2022-10-03T13:48:40;3.00;;;2.85;;
6898;SDS011;3488;42.616;23.350;2022-10-03T13:51:16;4.22;;;3.33;;
6898;SDS011;3488;42.616;23.350;2022-10-03T13:53:52;2.85;;;2.75;;
6898;SDS011;3488;42.616;23.350;2022-10-03T13:56:30;2.72;;;2.53;;
6898;SDS011;3488;42.616;23.350;2022-10-03T13:59:08;2.92;;;2.72;;
6898;SDS011;3488;42.616;23.350;2022-10-03T14:01:50;4.43;;;2.58;;
6898;SDS011;3488;42.616;23.350;2022-10-03T14:04:30;2.72;;;2.60;;
6898;SDS011;3488;42.616;23.350;2022-10-03T14:07:19;2.47;;;2.35;;
6898;SDS011;3488;42.616;23.350;2022-10-03T14:10:12;2.83;;;2.72;;
6898;SDS011;3488;42.616;23.350;2022-10-03T14:13:05;1.85;;;1.83;;
6898;SDS011;3488;42.616;23.350;2022-10-03T14:15:45;2.30;;;2.20;;
6898;SDS011;3488;42.616;23.350;2022-10-03T14:18:24;2.13;;;2.10;;
6898;SDS011;3488;42.616;23.350;2022-10-03T14:24:05;2.47;;;1.98;;
6898;SDS011;3488;42.616;23.350;2022-10-03T14:26:43;2.50;;;2.40;;
6898;SDS011;3488;42.616;23.350;2022-10-03T14:29:20;2.25;;;2.13;;
6898;SDS011;3488;42.616;23.350;2022-10-03T14:31:54;2.30;;;2.20;;
6898;SDS011;3488;42.616;23.350;2022-10-03T14:34:34;2.08;;;2.00;;
6898;SDS011;3488;42.616;23.350;2022-10-03T14:37:17;2.00;;;1.90;;
6898;SDS011;3488;42.616;23.350;2022-10-03T14:39:54;2.40;;;2.20;;
6898;SDS011;3488;42.616;23.350;2022-10-03T14:42:43;2.67;;;2.05;;
6898;SDS011;3488;42.616;23.350;2022-10-03T14:45:23;2.17;;;1.98;;
6898;SDS011;3488;42.616;23.350;2022-10-03T14:47:54;1.77;;;1.77;;
6898;SDS011;3488;42.616;23.350;2022-10-03T14:50:25;1.77;;;1.77;;
6898;SDS011;3488;42.616;23.350;2022-10-03T14:52:57;2.35;;;2.10;;
6898;SDS011;3488;42.616;23.350;2022-10-03T14:55:30;2.33;;;2.22;;
6898;SDS011;3488;42.616;23.350;2022-10-03T14:57:59;2.80;;;2.30;;
6898;SDS011;3488;42.616;23.350;2022-10-03T15:00:36;2.47;;;2.38;;
6898;SDS011;3488;42.616;23.350;2022-10-03T15:03:27;2.33;;;2.22;;
6898;SDS011;3488;42.616;23.350;2022-10-03T15:05:58;2.65;;;2.55;;
6898;SDS011;3488;42.616;23.350;2022-10-03T15:08:33;2.50;;;2.40;;
6898;SDS011;3488;42.616;23.350;2022-10-03T15:11:03;2.90;;;2.80;;
6898;SDS011;3488;42.616;23.350;2022-10-03T15:13:32;2.20;;;2.10;;
6898;SDS011;3488;42.616;23.350;2022-10-03T15:16:05;2.58;;;2.47;;
6898;SDS011;3488;42.616;23.350;2022-10-03T15:18:34;2.90;;;2.70;;
6898;SDS011;3488;42.616;23.350;2022-10-03T15:21:03;2.95;;;2.75;;
6898;SDS011;3488;42.616;23.350;2022-10-03T15:23:36;2.63;;;2.40;;
6898;SDS011;3488;42.616;23.350;2022-10-03T15:26:07;1.50;;;1.50;;
6898;SDS011;3488;42.616;23.350;2022-10-03T15:28:39;1.85;;;1.77;;
6898;SDS011;3488;42.616;23.350;2022-10-03T15:31:14;1.98;;;1.90;;
6898;SDS011;3488;42.616;23.350;2022-10-03T15:33:47;1.85;;;1.75;;
6898;SDS011;3488;42.616;23.350;2022-10-03T15:36:19;2.58;;;2.47;;
6898;SDS011;3488;42.616;23.350;2022-10-03T15:38:51;4.13;;;2.25;;
6898;SDS011;3488;42.616;23.350;2022-10-03T15:41:21;1.83;;;1.73;;
6898;SDS011;3488;42.616;23.350;2022-10-03T15:43:54;2.13;;;2.03;;
6898;SDS011;3488;42.616;23.350;2022-10-03T15:46:30;1.58;;;1.58;;
6898;SDS011;3488;42.616;23.350;2022-10-03T15:49:00;2.13;;;1.63;;
6898;SDS011;3488;42.616;23.350;2022-10-03T15:51:31;1.60;;;1.60;;
6898;SDS011;3488;42.616;23.350;2022-10-03T15:54:03;2.15;;;2.00;;
6898;SDS011;3488;42.616;23.350;2022-10-03T15:56:35;1.52;;;1.42;;
6898;SDS011;3488;42.616;23.350;2022-10-03T15:59:06;1.80;;;1.70;;
6898;SDS011;3488;42.616;23.350;2022-10-03T16:01:37;1.33;;;1.20;;
6898;SDS011;3488;42.616;23.350;2022-10-03T16:04:07;1.42;;;1.33;;
6898;SDS011;3488;42.616;23.350;2022-10-03T16:06:44;1.40;;;1.30;;
6898;SDS011;3488;42.616;23.350;2022-10-03T16:09:21;0.93;;;0.93;;
6898;SDS011;3488;42.616;23.350;2022-10-03T16:11:56;1.42;;;1.33;;
6898;SDS011;3488;42.616;23.350;2022-10-03T16:14:35;1.17;;;1.17;;
6898;SDS011;3488;42.616;23.350;2022-10-03T16:17:10;1.38;;;1.27;;
6898;SDS011;3488;42.616;23.350;2022-10-03T16:19:45;1.10;;;1.10;;
6898;SDS011;3488;42.616;23.350;2022-10-03T16:22:20;2.15;;;1.33;;
6898;SDS011;3488;42.616;23.350;2022-10-03T16:24:57;1.20;;;1.20;;
6898;SDS011;3488;42.616;23.350;2022-10-03T16:27:32;1.05;;;0.95;;
6898;SDS011;3488;42.616;23.350;2022-10-03T16:30:16;0.85;;;0.85;;
6898;SDS011;3488;42.616;23.350;2022-10-03T16:32:54;1.63;;;1.52;;
6898;SDS011;3488;42.616;23.350;2022-10-03T16:35:31;1.92;;;1.83;;
6898;SDS011;3488;42.616;23.350;2022-10-03T16:38:02;1.90;;;1.30;;
6898;SDS011;3488;42.616;23.350;2022-10-03T16:40:33;2.25;;;1.63;;
6898;SDS011;3488;42.616;23.350;2022-10-03T16:43:02;1.90;;;1.80;;
6898;SDS011;3488;42.616;23.350;2022-10-03T16:45:34;4.10;;;2.05;;
6898;SDS011;3488;42.616;23.350;2022-10-03T16:48:10;3.75;;;2.00;;
6898;SDS011;3488;42.616;23.350;2022-10-03T16:50:56;2.05;;;1.90;;
6898;SDS011;3488;42.616;23.350;2022-10-03T16:53:26;1.75;;;1.65;;
6898;SDS011;3488;42.616;23.350;2022-10-03T16:55:54;1.42;;;1.33;;
6898;SDS011;3488;42.616;23.350;2022-10-03T16:58:26;2.00;;;1.90;;
6898;SDS011;3488;42.616;23.350;2022-10-03T17:00:56;1.60;;;1.50;;
6898;SDS011;3488;42.616;23.350;2022-10-03T17:03:31;1.80;;;1.70;;
6898;SDS011;3488;42.616;23.350;2022-10-03T17:06:03;1.65;;;1.65;;
6898;SDS011;3488;42.616;23.350;2022-10-03T17:08:34;1.83;;;1.60;;
6898;SDS011;3488;42.616;23.350;2022-10-03T17:11:11;1.50;;;1.50;;
6898;SDS011;3488;42.616;23.350;2022-10-03T17:13:44;6.53;;;1.52;;
6898;SDS011;3488;42.616;23.350;2022-10-03T17:16:19;2.50;;;2.13;;
6898;SDS011;3488;42.616;23.350;2022-10-03T17:18:59;2.25;;;1.70;;
6898;SDS011;3488;42.616;23.350;2022-10-03T17:21:36;3.60;;;2.35;;
6898;SDS011;3488;42.616;23.350;2022-10-03T17:24:08;1.88;;;1.67;;
6898;SDS011;3488;42.616;23.350;2022-10-03T17:26:38;2.13;;;1.90;;
6898;SDS011;3488;42.616;23.350;2022-10-03T17:29:09;2.13;;;1.48;;
6898;SDS011;3488;42.616;23.350;2022-10-03T17:31:42;2.85;;;2.20;;
6898;SDS011;3488;42.616;23.350;2022-10-03T17:34:14;2.78;;;2.60;;
6898;SDS011;3488;42.616;23.350;2022-10-03T17:39:49;2.55;;;2.35;;
6898;SDS011;3488;42.616;23.350;2022-10-03T17:42:26;2.10;;;2.00;;
6898;SDS011;3488;42.616;23.350;2022-10-03T17:45:21;1.63;;;1.63;;
6898;SDS011;3488;42.616;23.350;2022-10-03T17:47:57;1.83;;;1.73;;
6898;SDS011;3488;42.616;23.350;2022-10-03T17:50:35;1.95;;;1.80;;
6898;SDS011;3488;42.616;23.350;2022-10-03T17:53:11;1.98;;;1.85;;
6898;SDS011;3488;42.616;23.350;2022-10-03T17:55:45;2.33;;;2.22;;
6898;SDS011;3488;42.616;23.350;2022-10-03T17:58:16;2.33;;;1.88;;
6898;SDS011;3488;42.616;23.350;2022-10-03T18:00:54;1.80;;;1.70;;
6898;SDS011;3488;42.616;23.350;2022-10-03T18:03:27;2.28;;;1.58;;
6898;SDS011;3488;42.616;23.350;2022-10-03T18:06:23;3.25;;;1.50;;
6898;SDS011;3488;42.616;23.350;2022-10-03T18:09:05;3.00;;;1.27;;
6898;SDS011;3488;42.616;23.350;2022-10-03T18:11:36;1.65;;;1.55;;
6898;SDS011;3488;42.616;23.350;2022-10-03T18:14:08;2.03;;;1.75;;
6898;SDS011;3488;42.616;23.350;2022-10-03T18:16:42;2.85;;;1.90;;
6898;SDS011;3488;42.616;23.350;2022-10-03T18:19:19;2.88;;;1.90;;
6898;SDS011;3488;42.616;23.350;2022-10-03T18:22:02;1.40;;;1.30;;
6898;SDS011;3488;42.616;23.350;2022-10-03T18:24:50;1.38;;;1.38;;
6898;SDS011;3488;42.616;23.350;2022-10-03T18:30:26;1.50;;;1.50;;
6898;SDS011;3488;42.616;23.350;2022-10-03T18:33:00;1.60;;;1.60;;
6898;SDS011;3488;42.616;23.350;2022-10-03T18:35:33;11.73;;;1.50;;
6898;SDS011;3488;42.616;23.350;2022-10-03T18:38:04;1.70;;;1.60;;
6898;SDS011;3488;42.616;23.350;2022-10-03T18:40:47;1.75;;;1.65;;
6898;SDS011;3488;42.616;23.350;2022-10-03T18:43:30;1.45;;;1.42;;
6898;SDS011;3488;42.616;23.350;2022-10-03T18:46:04;2.72;;;1.10;;
6898;SDS011;3488;42.616;23.350;2022-10-03T18:48:40;0.98;;;0.98;;
6898;SDS011;3488;42.616;23.350;2022-10-03T18:51:12;2.13;;;1.65;;
6898;SDS011;3488;42.616;23.350;2022-10-03T18:53:48;1.45;;;1.30;;
6898;SDS011;3488;42.616;23.350;2022-10-03T18:56:22;1.30;;;0.98;;
6898;SDS011;3488;42.616;23.350;2022-10-03T18:58:56;2.85;;;1.42;;
6898;SDS011;3488;42.616;23.350;2022-10-03T19:01:44;2.35;;;1.17;;
6898;SDS011;3488;42.616;23.350;2022-10-03T19:07:09;2.38;;;1.73;;
6898;SDS011;3488;42.616;23.350;2022-10-03T19:09:53;5.55;;;1.45;;
6898;SDS011;3488;42.616;23.350;2022-10-03T19:12:44;2.75;;;2.05;;
6898;SDS011;3488;42.616;23.350;2022-10-03T19:15:16;2.80;;;2.00;;
6898;SDS011;3488;42.616;23.350;2022-10-03T19:17:50;2.85;;;1.52;;
6898;SDS011;3488;42.616;23.350;2022-10-03T19:20:30;1.85;;;1.73;;
6898;SDS011;3488;42.616;23.350;2022-10-03T19:23:02;1.70;;;1.60;;
6898;SDS011;3488;42.616;23.350;2022-10-03T19:25:37;1.90;;;1.77;;
6898;SDS011;3488;42.616;23.350;2022-10-03T19:28:07;3.05;;;1.98;;